Glen Ridge, NJ (07028)

7:38 AM EST on March 06, 2015 (GMT -0500)
Dodd House | Change Station
CLOSE
Current Station
Personal Weather Station
Location: Montclair, NJ
Elevation: 289 ft
Nearby Weather Stations

Elev 289 ft 40.82 °N, 74.20 °W | Updated 10 seconds ago

Clear
Clear
12.5 °F
Feels Like 6 °F
N
3.5
Wind Variable Wind from North
Gusts 3.6 mph

Today
High -- | Low -- °F
--% Chance of Precip.
Yesterday
High -- | Low -- °F
Precip. -- in
6:23 AM 5:53 PM
Waxing Gibbous, 99% visible
Pressure 30.56 in
Visibility 10.0 miles
Clouds Clear
Windchill 6 °F
Dew Point 5 °F
Humidity 70%
Rainfall in
Snow Depth Not available.
UV 0 out of 12
Pollen .60 out of 12
Air Quality Not available.
Flu Activity Not available.
METAR KCDW 061153Z AUTO 15003KT 10SM CLR M14/M18 A3053 RMK AO2 SLP347 70015 T11441178 11094 21161 51025 TSNO

More Conditions Fewer Conditions

Pressure 30.56 in
Visibility 10.0 miles
Clouds Clear
Windchill 6 °F
Dew Point 5 °F
Humidity 70%
Rainfall in
Snow Depth Not available.
UV 0 out of 12
Pollen .60 out of 12
Air Quality Not available.
Flu Activity Not available.
METAR KCDW 061153Z AUTO 15003KT 10SM CLR M14/M18 A3053 RMK AO2 SLP347 70015 T11441178 11094 21161 51025 TSNO

More Conditions Fewer Conditions

10-Day Weather Forecast

Almanac

Astronomy

Mar. 06, 2015 Rise Set
Actual Time
Civil Twilight
Nautical Twilight
Astronomical Twilight
Moon
Length of Visible Light
Length of Day
Tomorrow will be .
, % of the Moon is Illuminated

Today's Extremes

State Highs State Lows

Community

WunderPhotos

Upload Photos

1,803,245 photos uploaded!

WunderBlogs® & News

Nearby

Air Quality

  Air Quality AQ Index Pollutant
Not available.

Snow Depth

Station Depth Elevation

Earthquake Activity

City Distance Mag. Time & Date
Minimum magnitude displayed is 2.5.

Coastal Water Temperatures

Place Temperature

Nearby Weather Stations